Logo AVAMET
Benvolgut visitant, si us plau, ingressa Recuperar contrasenya

Xàbia Montgó/Castellans

Dades diàries. Acumulats / Últims 30 dies disponibles

Data Temperatura (°C) Humitat rel. (%) Pressió rel. (hPa) Vent (km/h) Precipitació
Mínima Mitjana Màxima Amplitud
tèrmica
Mínima Mitjana Màxima Mínima Mitjana Màxima Predom. Mitjana Ràfega
màxima
Total
(mm)
Índex-n
Mínima Mitjana Màxima Mínima Mitjana Màxima n
0 a 1
P0 max
mm 5'
Dades mensuals acumulades fins l'últim dia disponible
10/2019 13,4 18,4 21,2 21,5 16,6 25,4 30,5 17,1 22 70 95 1.005 1.015 1.022   2,5 48,3 77,0
Dades anuals acumulades fins l'últim dia disponible
2019 5,1 16,1 26,1 19,4 10,3 23,5 36,9 31,8 17 68 98 994 1.017 1.035   3,2 59,5 743,8
Últims 30 dies disponibles
22-10-2019 13,6     15,2     16,6 3,0 66 85 94 1.005 1.010 1.017 SSO 4,3 40,2 66,0
21-10-2019 13,4     15,8     18,0 4,6 43 73 92 1.014 1.016 1.018 W 1,9 24,1 9,0 0,30 1,00
20-10-2019 17,7     20,8     25,3 7,6 45 63 85 1.005 1.009 1.015 SW 2,9 22,5 0,0
19-10-2019 18,2     22,0     26,3 8,1 38 64 88 1.006 1.010 1.013 ESE 1,8 24,1 0,0
18-10-2019 19,8     23,1     27,9 8,1 38 51 63 1.013 1.015 1.017 SW 1,4 20,9 0,0
17-10-2019 16,3     21,3     26,6 10,3 31 52 72 1.015 1.016 1.018 NW 0,8 19,3 0,0
16-10-2019 15,8     19,8     24,5 8,7 31 48 74 1.016 1.018 1.020 SW 1,8 24,1 0,0
15-10-2019 16,7     19,6     23,6 6,9 25 43 54 1.013 1.017 1.020 W 8,0 48,3 0,0
14-10-2019 19,8     21,6     24,1 4,3 43 87 94 1.011 1.013 1.016 W 1,6 27,4 1,8
13-10-2019 19,9     22,3     26,1 6,2 73 87 94 1.015 1.016 1.017 WNW 4,2 25,7 0,0
12-10-2019 20,1     22,2     25,3 5,2 78 87 92 1.016 1.018 1.020 WNW 1,8 14,5 0,0
11-10-2019 19,6     22,1     25,5 5,9 69 80 89 1.019 1.020 1.022 E 1,3 20,9 0,0
10-10-2019 19,3     22,5     27,0 7,7 58 77 90 1.019 1.020 1.022 E 1,1 14,5 0,0
09-10-2019 20,1     22,4     26,2 6,1 63 75 86 1.015 1.016 1.019 SW 2,3 24,1 0,0
08-10-2019 18,7     22,1     26,1 7,4 65 73 81 1.017 1.018 1.020 SSW 3,2 27,4 0,0
07-10-2019 20,2     22,3     25,6 5,4 54 75 93 1.014 1.016 1.018 NW 2,1 27,4 0,0
06-10-2019 18,7     22,1     25,8 7,1 71 85 94 1.015 1.016 1.018 W 1,4 16,1 0,0
05-10-2019 19,1     22,5     26,3 7,2 59 80 92 1.013 1.015 1.016 NW 3,2 24,1 0,0
04-10-2019 18,4     22,8     27,2 8,8 41 69 86 1.013 1.015 1.017 W 1,9 17,7 0,0
03-10-2019 19,8     21,9     25,3 5,5 53 64 79 1.015 1.016 1.017 WNW 2,7 19,3 0,0
02-10-2019 21,2     24,5     29,3 8,1 24 48 76 1.009 1.013 1.016 NW 3,7 29,0 0,0
01-10-2019 19,4     25,1     30,5 11,1 22 74 95 1.008 1.011 1.015 SSW 1,4 32,2 0,2
30-09-2019 21,2     22,2     26,2 5,0 71 85 91 1.014 1.015 1.017 OSO 0,3 20,9 0,0
29-09-2019 19,2     23,4     27,6 8,4 65 82 93 1.015 1.017 1.019 ESE 1,0 17,7 0,2
28-09-2019 20,8     23,3     26,5 5,7 73 85 94 1.017 1.019 1.021 SW 2,1 20,9 0,0
27-09-2019 19,0     23,9     28,2 9,2 55 76 92 1.016 1.017 1.018 ESE 1,3 19,3 0,0
26-09-2019 20,3     23,4     28,1 7,8 61 82 94 1.017 1.018 1.020 SW 1,8 19,3 0,0
25-09-2019 21,8     26,4     29,6 7,8 28 58 90 1.012 1.014 1.017 W 6,9 51,5 0,0
24-09-2019 19,5     24,7     31,3 11,8 33 65 84 1.013 1.016 1.019 SW 1,1 17,7 0,0
23-09-2019 21,8     24,0     26,2 4,4 40 60 84 1.015 1.018 1.020 W 4,3 35,4 0,0
Últims 13 mesos disponibles
09/2019 13,8 20,4 23,4 23,5 22,8 27,1 32,2 18,4 58 78 94 1.009 1.017 1.023 SW 2,5 59,5 184,2
08/2019 19,8 22,8 26,0 26,2 26,6 30,5 36,4 16,6 55 74 84 1.010 1.015 1.019 WNW 3,0 40,2 47,4
07/2019 21,1 23,0 26,1 26,5 28,5 30,9 36,9 15,8 45 70 82 1.005 1.013 1.020 ESE 3,5 41,8 1,6
06/2019 14,7 18,5 23,9 22,3 21,6 26,6 35,6 20,9 46 68 84 1.008 1.015 1.021 WNW 4,3 45,1 1,0
05/2019 11,2 15,1 20,4 18,5 18,8 22,8 29,3 18,1 48 70 83 1.005 1.015 1.024 NW 3,0 51,5 11,6
04/2019 9,1 12,4 14,3 15,4 13,9 19,3 28,1 19,0 38 69 94 999 1.012 1.025 NW 4,0 49,9 377,2
03/2019 7,9 11,4 14,6 14,9 13,7 19,2 27,1 19,2 38 62 92 1.010 1.022 1.030 NW 2,7 54,7 38,0
02/2019 6,4 9,6 12,0 13,0 13,0 17,3 23,1 16,7 37 65 89 996 1.024 1.033 NW 3,4 53,1 0,2
01/2019 5,1 9,3 12,5 12,5 10,3 16,0 20,9 15,8 38 59 82 1.003 1.018 1.030 W 2,7 48,3 5,6
12/2018 8,1 11,3 14,9 14,5 12,7 18,3 22,9 14,8 42 68 87 1.008 1.024 1.030 NW 1,9 59,5 23,4
11/2018 10,6 13,3 16,5 15,8 14,4 18,6 23,6 13,0 46 69 94 1.000 1.015 1.022 W 2,8 59,5 88,6
10/2018 9,1 16,4 19,9 19,3 14,8 23,1 28,1 19,0 42 73 90 999 1.014 1.025 2,8 53,1 103,0
09/2018 17,4 21,5 23,6 24,2 23,4 28,0 30,9 13,5 66 80 91 1.011 1.018 1.026 2,3 32,2 107,8
Tots els anys disponibles
2018 3,8 15,5 27,3 18,7 7,8 22,5 36,8 33,0 42 72 94 999 1.017 1.030 W 3,6 61,2 701,8
2017 0,8 15,4 26,4 18,6 8,4 22,5 34,0 33,2 3,6 67,6 588,4
2016 5,6 15,2 26,8 18,3 12,1 21,9 37,7 32,1 4,2 70,8 353,4
2015 3,4 15,8 21,7 18,9 22,1 22,7 37,9 34,5 4,3 66,0 453,6
2014 4,8 18,1 26,5 21,1 11,6 24,8 34,6 29,8 4,9 61,2 222,6
2013
Temperatura (°C)
Humitat relativa (%)
Velocitat del vent i ràfega màxima (km/h)
Direcció del vent (°)
Pressió (hPa)
Precipitació (mm)
Nota sobre les dades: s'avisa a l'usuari de la provisionalitat i no oficialitat d'aquestes dades
Logo AVAMET blanc
Web allotjada a Sollutia
Llicència de Creative CommonsLa web d'AVAMET i els seus continguts estan subjectes a una llicència de
Reconeixement - No Comercial - Compartir igual
Últimes estacions: Sueca - Centre (Inforatge), Xàbia - La Plana (Soci), Banyeres de Mariola - Molí Sol (Soci), Villena - Villa Ventín (Soci), Benissa - Convent (Soci), Xàbia Fontanella (Soci), Castielfabib (Soci) --- Properes estacions: Villena - Serra de Salines (Soci) - - -